Flight Track Log - Related Links

Times and Time Zones

All times are in EDT time to prevent confusion due to time zone crossing. See the SKW5607 flight status page for this flight to view local times or setup timezone preferences in your user account.

Time Position Orientation Groundspeed Altitude Reporting Facility
EDT Latitude Longitude Course Direction KTS MPH feet Rate Location/Type
Thu 05:34:28 PM 37.6333 -122.3667 79° East 150 173 700  Level Northern TRACON
Thu 05:35:28 PM 37.6667 -122.3167 50° Northeast 204 235 2,200 1,800 Climbing Northern TRACON
Thu 05:36:28 PM 37.7000 -122.2667 50° Northeast 182 209 4,300 1,950 Climbing Northern TRACON
Thu 05:37:28 PM 37.7333 -122.2000 58° Northeast 244 281 6,100 1,850 Climbing Northern TRACON
Thu 05:38:00 PM 37.7710 -121.9216 79° East  Level FlightAware
Thu 05:38:28 PM 37.7333 -122.1333 90° East 195 224 8,000  Level Northern TRACON
Thu 05:39:00 PM 37.7903 -121.7965 79° East  Level FlightAware
Thu 05:39:25 PM 37.7536 -122.0781 65° Northeast 199 229 9,500  Level Oakland Center
Thu 05:40:27 PM 37.7669 -122.0061 77° East 203 234 10,900 1,415 Climbing Oakland Center
Thu 05:41:28 PM 37.7811 -121.9283 77° East 222 255 12,400 1,512 Climbing Oakland Center
Thu 05:42:30 PM 37.7956 -121.8514 77° East 224 258 14,000 1,500 Climbing Oakland Center
Thu 05:43:28 PM 37.7667 -121.7667 113° Southeast 214 246 15,400 1,286 Climbing Northern TRACON
Thu 05:44:22 PM 37.7333 -121.7167 130° Southeast 223 257 16,400 1,105 Climbing Northern TRACON
Thu 05:45:22 PM 37.7167 -121.6500 108° East 227 261 17,500 1,150 Climbing Northern TRACON
Thu 05:46:22 PM 37.6833 -121.5667 117° Southeast 234 269 18,700 750 Climbing Northern TRACON
Thu 05:47:22 PM 37.6500 -121.5000 122° Southeast 256 295 19,000 149 Climbing Northern TRACON
Thu 05:48:23 PM 37.6167 -121.4167 117° Southeast 283 326 19,000  Level Northern TRACON
Thu 05:49:22 PM 37.5833 -121.3167 113° Southeast 282 325 19,000  Level Northern TRACON
Thu 05:50:23 PM 37.5500 -121.2333 117° Southeast 279 321 19,000  Level Northern TRACON
Thu 05:51:23 PM 37.5167 -121.1500 117° Southeast 275 316 19,000  Level Northern TRACON
Thu 05:52:23 PM 37.4667 -121.0667 127° Southeast 276 318 19,000  Level Northern TRACON
Thu 05:53:23 PM 37.4333 -120.9833 117° Southeast 273 314 19,000  Level Northern TRACON
Thu 05:54:23 PM 37.4000 -120.9000 117° Southeast 270 311 19,000  Level Northern TRACON
Thu 05:55:28 PM 37.3500 -120.8167 127° Southeast 269 310 19,000  Level Northern TRACON
Thu 05:56:28 PM 37.3167 -120.7333 117° Southeast 264 304 19,000 -890 Level Northern TRACON
Thu 05:58:57 PM 37.2206 -120.5197 119° Southeast 305 351 15,900 -1,314 Descending Oakland Center
Thu 05:59:58 PM 37.1764 -120.4264 121° Southeast 308 354 14,400 -1,463 Descending Oakland Center
Thu 06:01:00 PM 37.1322 -120.3336 121° Southeast 309 356 12,900 -1,452 Descending Oakland Center
Thu 06:02:02 PM 37.0897 -120.2450 121° Southeast 299 344 11,400 -1,024 Descending Oakland Center
Thu 06:03:03 PM 37.0411 -120.1408 120° Southeast 292 336 10,800 -927 Descending Oakland Center
Thu 06:04:05 PM 37.0011 -120.0575 121° Southeast 281 323 9,500 -1,258 Descending Oakland Center
Thu 06:05:07 PM 36.9586 -119.9711 122° Southeast 290 334 8,200 -1,317 Descending Oakland Center
Thu 06:06:08 PM 36.9178 -119.8847 121° Southeast 290 334 6,800 -1,268 Descending Oakland Center
Thu 06:07:10 PM 36.8850 -119.8011 116° Southeast 275 316 5,600 -1,122 Descending Oakland Center
Thu 06:08:11 PM 36.8600 -119.7181 111° Southeast 259 298 4,500 -1,317 Descending Oakland Center
Thu 06:09:13 PM 36.8233 -119.6433 121° Southeast 254 292 2,900 -1,210 Descending Oakland Center
Thu 06:10:15 PM 36.7544 -119.6356 175° South 205 236 2,000 -927 Descending Oakland Center
Thu 06:11:16 PM 36.7536 -119.6781 269° West 147 169 1,000 -829 Descending Oakland Center
Thu 06:12:18 PM 36.7731 -119.7119 306° West 136 157 300 -677 Descending Oakland Center

Login

Don't have an account? Register now (free) for customized features, flight alerts, and more!